sensor_id;sensor_type;location;lat;lon;timestamp;P1;durP1;ratioP1;P2;durP2;ratioP2
7621;SDS011;3852;52.284;8.032;2022-08-19T00:00:33;8.17;;;7.47;;
7621;SDS011;3852;52.284;8.032;2022-08-19T00:03:00;8.77;;;7.93;;
7621;SDS011;3852;52.284;8.032;2022-08-19T00:05:27;12.77;;;8.27;;
7621;SDS011;3852;52.284;8.032;2022-08-19T00:07:56;10.53;;;8.97;;
7621;SDS011;3852;52.284;8.032;2022-08-19T00:10:22;10.67;;;8.37;;
7621;SDS011;3852;52.284;8.032;2022-08-19T00:12:49;8.80;;;7.93;;
7621;SDS011;3852;52.284;8.032;2022-08-19T00:15:16;8.90;;;8.00;;
7621;SDS011;3852;52.284;8.032;2022-08-19T00:17:45;8.63;;;7.67;;
7621;SDS011;3852;52.284;8.032;2022-08-19T00:20:12;9.07;;;8.17;;
7621;SDS011;3852;52.284;8.032;2022-08-19T00:22:42;8.83;;;7.83;;
7621;SDS011;3852;52.284;8.032;2022-08-19T00:25:09;8.33;;;7.57;;
7621;SDS011;3852;52.284;8.032;2022-08-19T00:27:36;8.40;;;7.43;;
7621;SDS011;3852;52.284;8.032;2022-08-19T00:30:03;7.87;;;6.97;;
7621;SDS011;3852;52.284;8.032;2022-08-19T00:32:31;8.33;;;7.50;;
7621;SDS011;3852;52.284;8.032;2022-08-19T00:34:59;8.77;;;7.90;;
7621;SDS011;3852;52.284;8.032;2022-08-19T00:37:26;8.07;;;7.23;;
7621;SDS011;3852;52.284;8.032;2022-08-19T00:39:52;8.97;;;8.07;;
7621;SDS011;3852;52.284;8.032;2022-08-19T00:42:19;8.83;;;8.00;;
7621;SDS011;3852;52.284;8.032;2022-08-19T00:44:46;9.40;;;8.17;;
7621;SDS011;3852;52.284;8.032;2022-08-19T00:47:15;9.63;;;8.50;;
7621;SDS011;3852;52.284;8.032;2022-08-19T00:49:43;9.20;;;8.30;;
7621;SDS011;3852;52.284;8.032;2022-08-19T00:52:23;9.27;;;8.10;;
7621;SDS011;3852;52.284;8.032;2022-08-19T00:54:57;9.20;;;8.10;;
7621;SDS011;3852;52.284;8.032;2022-08-19T00:57:31;8.80;;;7.93;;
7621;SDS011;3852;52.284;8.032;2022-08-19T01:00:01;9.53;;;8.63;;
7621;SDS011;3852;52.284;8.032;2022-08-19T01:02:31;8.13;;;7.37;;
7621;SDS011;3852;52.284;8.032;2022-08-19T01:04:58;9.53;;;8.50;;
7621;SDS011;3852;52.284;8.032;2022-08-19T01:07:29;8.63;;;7.73;;
7621;SDS011;3852;52.284;8.032;2022-08-19T01:09:55;10.33;;;8.83;;
7621;SDS011;3852;52.284;8.032;2022-08-19T01:12:21;9.67;;;8.70;;
7621;SDS011;3852;52.284;8.032;2022-08-19T01:14:48;9.53;;;8.43;;
7621;SDS011;3852;52.284;8.032;2022-08-19T01:17:15;9.43;;;8.40;;
7621;SDS011;3852;52.284;8.032;2022-08-19T01:19:41;9.83;;;8.03;;
7621;SDS011;3852;52.284;8.032;2022-08-19T01:24:49;9.30;;;8.30;;
7621;SDS011;3852;52.284;8.032;2022-08-19T01:27:16;9.10;;;8.20;;
7621;SDS011;3852;52.284;8.032;2022-08-19T01:29:45;9.40;;;8.50;;
7621;SDS011;3852;52.284;8.032;2022-08-19T01:32:12;8.90;;;8.03;;
7621;SDS011;3852;52.284;8.032;2022-08-19T01:34:41;9.83;;;8.57;;
7621;SDS011;3852;52.284;8.032;2022-08-19T01:37:12;9.90;;;8.43;;
7621;SDS011;3852;52.284;8.032;2022-08-19T01:39:39;8.90;;;8.00;;
7621;SDS011;3852;52.284;8.032;2022-08-19T01:42:07;9.00;;;8.23;;
7621;SDS011;3852;52.284;8.032;2022-08-19T01:44:35;10.53;;;9.30;;
7621;SDS011;3852;52.284;8.032;2022-08-19T01:47:01;9.07;;;8.17;;
7621;SDS011;3852;52.284;8.032;2022-08-19T01:49:31;10.00;;;9.00;;
7621;SDS011;3852;52.284;8.032;2022-08-19T01:51:59;13.53;;;10.03;;
7621;SDS011;3852;52.284;8.032;2022-08-19T01:54:26;9.77;;;8.87;;
7621;SDS011;3852;52.284;8.032;2022-08-19T01:56:53;11.43;;;9.83;;
7621;SDS011;3852;52.284;8.032;2022-08-19T01:59:27;10.90;;;8.87;;
7621;SDS011;3852;52.284;8.032;2022-08-19T02:01:53;10.73;;;9.17;;
7621;SDS011;3852;52.284;8.032;2022-08-19T02:04:19;10.30;;;9.30;;
7621;SDS011;3852;52.284;8.032;2022-08-19T02:06:45;9.90;;;9.00;;
7621;SDS011;3852;52.284;8.032;2022-08-19T02:09:14;10.53;;;9.43;;
7621;SDS011;3852;52.284;8.032;2022-08-19T02:11:41;11.87;;;10.40;;
7621;SDS011;3852;52.284;8.032;2022-08-19T02:14:07;9.43;;;8.43;;
7621;SDS011;3852;52.284;8.032;2022-08-19T02:16:34;10.37;;;9.13;;
7621;SDS011;3852;52.284;8.032;2022-08-19T02:19:04;11.43;;;9.50;;
7621;SDS011;3852;52.284;8.032;2022-08-19T02:21:30;13.03;;;9.63;;
7621;SDS011;3852;52.284;8.032;2022-08-19T02:23:58;11.07;;;9.87;;
7621;SDS011;3852;52.284;8.032;2022-08-19T02:26:24;11.33;;;9.40;;
7621;SDS011;3852;52.284;8.032;2022-08-19T02:28:54;10.80;;;9.60;;
7621;SDS011;3852;52.284;8.032;2022-08-19T02:31:20;10.73;;;9.57;;
7621;SDS011;3852;52.284;8.032;2022-08-19T02:33:49;10.80;;;9.70;;
7621;SDS011;3852;52.284;8.032;2022-08-19T02:36:17;10.47;;;9.43;;
7621;SDS011;3852;52.284;8.032;2022-08-19T02:38:43;10.77;;;9.70;;
7621;SDS011;3852;52.284;8.032;2022-08-19T02:41:14;11.33;;;9.37;;
7621;SDS011;3852;52.284;8.032;2022-08-19T02:43:43;11.50;;;10.40;;
7621;SDS011;3852;52.284;8.032;2022-08-19T02:48:43;12.77;;;10.07;;
7621;SDS011;3852;52.284;8.032;2022-08-19T02:51:09;12.13;;;9.80;;
7621;SDS011;3852;52.284;8.032;2022-08-19T02:53:42;10.70;;;9.60;;
7621;SDS011;3852;52.284;8.032;2022-08-19T02:56:08;11.87;;;10.10;;
7621;SDS011;3852;52.284;8.032;2022-08-19T02:58:34;12.00;;;10.70;;
7621;SDS011;3852;52.284;8.032;2022-08-19T03:01:00;12.10;;;10.13;;
7621;SDS011;3852;52.284;8.032;2022-08-19T03:03:26;10.80;;;9.70;;
7621;SDS011;3852;52.284;8.032;2022-08-19T03:06:01;12.37;;;11.10;;
7621;SDS011;3852;52.284;8.032;2022-08-19T03:08:41;12.93;;;11.10;;
7621;SDS011;3852;52.284;8.032;2022-08-19T03:11:15;12.13;;;9.83;;
7621;SDS011;3852;52.284;8.032;2022-08-19T03:13:45;11.60;;;10.17;;
7621;SDS011;3852;52.284;8.032;2022-08-19T03:16:12;11.90;;;10.57;;
7621;SDS011;3852;52.284;8.032;2022-08-19T03:18:38;12.77;;;11.23;;
7621;SDS011;3852;52.284;8.032;2022-08-19T03:21:04;13.87;;;12.37;;
7621;SDS011;3852;52.284;8.032;2022-08-19T03:23:30;14.53;;;12.50;;
7621;SDS011;3852;52.284;8.032;2022-08-19T03:25:56;15.00;;;12.23;;
7621;SDS011;3852;52.284;8.032;2022-08-19T03:28:22;13.73;;;12.33;;
7621;SDS011;3852;52.284;8.032;2022-08-19T03:30:55;14.23;;;12.73;;
7621;SDS011;3852;52.284;8.032;2022-08-19T03:33:28;14.37;;;12.87;;
7621;SDS011;3852;52.284;8.032;2022-08-19T03:36:38;14.67;;;12.37;;
7621;SDS011;3852;52.284;8.032;2022-08-19T03:38:54;14.07;;;11.47;;
7621;SDS011;3852;52.284;8.032;2022-08-19T03:41:24;14.67;;;11.77;;
7621;SDS011;3852;52.284;8.032;2022-08-19T03:43:59;14.67;;;13.07;;
7621;SDS011;3852;52.284;8.032;2022-08-19T03:46:29;14.30;;;12.80;;
7621;SDS011;3852;52.284;8.032;2022-08-19T03:48:57;16.37;;;13.60;;
7621;SDS011;3852;52.284;8.032;2022-08-19T03:51:26;17.67;;;13.67;;
7621;SDS011;3852;52.284;8.032;2022-08-19T03:53:56;15.20;;;13.40;;
7621;SDS011;3852;52.284;8.032;2022-08-19T03:56:24;18.80;;;14.33;;
7621;SDS011;3852;52.284;8.032;2022-08-19T03:58:55;16.47;;;14.10;;
7621;SDS011;3852;52.284;8.032;2022-08-19T04:01:24;17.43;;;13.80;;
7621;SDS011;3852;52.284;8.032;2022-08-19T04:03:52;15.97;;;14.00;;
7621;SDS011;3852;52.284;8.032;2022-08-19T04:06:22;18.30;;;14.47;;
7621;SDS011;3852;52.284;8.032;2022-08-19T04:08:57;17.00;;;13.50;;
7621;SDS011;3852;52.284;8.032;2022-08-19T04:11:33;14.83;;;13.23;;
7621;SDS011;3852;52.284;8.032;2022-08-19T04:14:06;16.53;;;13.40;;
7621;SDS011;3852;52.284;8.032;2022-08-19T04:16:34;16.40;;;14.33;;
7621;SDS011;3852;52.284;8.032;2022-08-19T04:19:02;15.67;;;13.33;;
7621;SDS011;3852;52.284;8.032;2022-08-19T04:21:29;15.53;;;12.80;;
7621;SDS011;3852;52.284;8.032;2022-08-19T04:23:57;16.67;;;14.00;;
7621;SDS011;3852;52.284;8.032;2022-08-19T04:26:24;16.97;;;13.50;;
7621;SDS011;3852;52.284;8.032;2022-08-19T04:28:57;14.80;;;12.80;;
7621;SDS011;3852;52.284;8.032;2022-08-19T04:31:32;15.80;;;13.00;;
7621;SDS011;3852;52.284;8.032;2022-08-19T04:34:01;16.20;;;13.67;;
7621;SDS011;3852;52.284;8.032;2022-08-19T04:36:32;14.40;;;12.83;;
7621;SDS011;3852;52.284;8.032;2022-08-19T04:39:03;17.47;;;14.77;;
7621;SDS011;3852;52.284;8.032;2022-08-19T04:41:35;20.97;;;15.83;;
7621;SDS011;3852;52.284;8.032;2022-08-19T04:44:20;16.57;;;13.87;;
7621;SDS011;3852;52.284;8.032;2022-08-19T04:46:46;19.30;;;14.83;;
7621;SDS011;3852;52.284;8.032;2022-08-19T04:49:14;16.93;;;14.60;;
7621;SDS011;3852;52.284;8.032;2022-08-19T04:51:44;18.30;;;14.87;;
7621;SDS011;3852;52.284;8.032;2022-08-19T04:54:13;19.90;;;15.77;;
7621;SDS011;3852;52.284;8.032;2022-08-19T04:56:40;20.03;;;15.50;;
7621;SDS011;3852;52.284;8.032;2022-08-19T04:59:06;19.03;;;15.60;;
7621;SDS011;3852;52.284;8.032;2022-08-19T05:01:33;16.40;;;14.70;;
7621;SDS011;3852;52.284;8.032;2022-08-19T05:04:02;18.03;;;15.00;;
7621;SDS011;3852;52.284;8.032;2022-08-19T05:06:31;19.20;;;15.60;;
7621;SDS011;3852;52.284;8.032;2022-08-19T05:08:59;22.90;;;17.13;;
7621;SDS011;3852;52.284;8.032;2022-08-19T05:11:34;20.57;;;16.00;;
7621;SDS011;3852;52.284;8.032;2022-08-19T05:14:05;19.37;;;16.20;;
7621;SDS011;3852;52.284;8.032;2022-08-19T05:16:32;19.87;;;15.50;;
7621;SDS011;3852;52.284;8.032;2022-08-19T05:18:58;20.73;;;16.23;;
7621;SDS011;3852;52.284;8.032;2022-08-19T05:21:42;20.50;;;17.10;;
7621;SDS011;3852;52.284;8.032;2022-08-19T05:24:28;20.20;;;16.40;;
7621;SDS011;3852;52.284;8.032;2022-08-19T05:26:55;20.10;;;16.27;;
7621;SDS011;3852;52.284;8.032;2022-08-19T05:29:25;21.40;;;16.50;;
7621;SDS011;3852;52.284;8.032;2022-08-19T05:31:52;25.73;;;18.27;;
7621;SDS011;3852;52.284;8.032;2022-08-19T05:34:20;21.57;;;16.87;;
7621;SDS011;3852;52.284;8.032;2022-08-19T05:36:50;23.77;;;17.47;;
7621;SDS011;3852;52.284;8.032;2022-08-19T05:39:21;22.47;;;17.50;;
7621;SDS011;3852;52.284;8.032;2022-08-19T05:41:54;20.57;;;16.53;;
7621;SDS011;3852;52.284;8.032;2022-08-19T05:44:27;23.67;;;16.67;;
7621;SDS011;3852;52.284;8.032;2022-08-19T05:46:56;21.17;;;17.60;;
7621;SDS011;3852;52.284;8.032;2022-08-19T05:49:27;24.20;;;17.70;;
7621;SDS011;3852;52.284;8.032;2022-08-19T05:51:54;24.30;;;18.57;;
7621;SDS011;3852;52.284;8.032;2022-08-19T05:54:20;23.03;;;17.93;;
7621;SDS011;3852;52.284;8.032;2022-08-19T05:56:48;23.37;;;18.40;;
7621;SDS011;3852;52.284;8.032;2022-08-19T05:59:15;23.17;;;18.37;;
7621;SDS011;3852;52.284;8.032;2022-08-19T06:01:44;20.60;;;17.00;;
7621;SDS011;3852;52.284;8.032;2022-08-19T06:04:12;19.67;;;15.93;;
7621;SDS011;3852;52.284;8.032;2022-08-19T06:06:42;21.33;;;16.93;;
7621;SDS011;3852;52.284;8.032;2022-08-19T06:09:08;23.67;;;16.73;;
7621;SDS011;3852;52.284;8.032;2022-08-19T06:11:39;18.27;;;15.27;;
7621;SDS011;3852;52.284;8.032;2022-08-19T06:14:18;17.40;;;14.87;;
7621;SDS011;3852;52.284;8.032;2022-08-19T06:16:48;18.87;;;14.93;;
7621;SDS011;3852;52.284;8.032;2022-08-19T06:19:16;19.43;;;14.70;;
7621;SDS011;3852;52.284;8.032;2022-08-19T06:21:45;18.17;;;13.93;;
7621;SDS011;3852;52.284;8.032;2022-08-19T06:24:14;15.27;;;13.63;;
7621;SDS011;3852;52.284;8.032;2022-08-19T06:26:44;14.43;;;13.03;;
7621;SDS011;3852;52.284;8.032;2022-08-19T06:29:13;16.60;;;12.60;;
7621;SDS011;3852;52.284;8.032;2022-08-19T06:31:42;13.33;;;11.50;;
7621;SDS011;3852;52.284;8.032;2022-08-19T06:34:10;14.20;;;12.17;;
7621;SDS011;3852;52.284;8.032;2022-08-19T06:36:38;13.63;;;11.90;;
7621;SDS011;3852;52.284;8.032;2022-08-19T06:39:09;15.37;;;12.50;;
7621;SDS011;3852;52.284;8.032;2022-08-19T06:41:51;15.87;;;12.27;;
7621;SDS011;3852;52.284;8.032;2022-08-19T06:44:21;14.33;;;11.40;;
7621;SDS011;3852;52.284;8.032;2022-08-19T06:46:51;15.60;;;11.20;;
7621;SDS011;3852;52.284;8.032;2022-08-19T06:49:18;12.30;;;11.13;;
7621;SDS011;3852;52.284;8.032;2022-08-19T06:51:44;14.97;;;12.23;;
7621;SDS011;3852;52.284;8.032;2022-08-19T06:54:13;11.77;;;10.57;;
7621;SDS011;3852;52.284;8.032;2022-08-19T06:56:40;11.80;;;10.30;;
7621;SDS011;3852;52.284;8.032;2022-08-19T06:59:12;13.03;;;10.57;;
7621;SDS011;3852;52.284;8.032;2022-08-19T07:01:47;11.03;;;9.37;;
7621;SDS011;3852;52.284;8.032;2022-08-19T07:04:16;12.23;;;9.77;;
7621;SDS011;3852;52.284;8.032;2022-08-19T07:06:44;11.83;;;9.60;;
7621;SDS011;3852;52.284;8.032;2022-08-19T07:09:12;10.00;;;9.00;;
7621;SDS011;3852;52.284;8.032;2022-08-19T07:11:43;10.20;;;9.20;;
7621;SDS011;3852;52.284;8.032;2022-08-19T07:14:12;9.10;;;8.20;;
7621;SDS011;3852;52.284;8.032;2022-08-19T07:16:42;9.83;;;8.80;;
7621;SDS011;3852;52.284;8.032;2022-08-19T07:19:10;10.20;;;9.13;;
7621;SDS011;3852;52.284;8.032;2022-08-19T07:21:37;9.03;;;7.70;;
7621;SDS011;3852;52.284;8.032;2022-08-19T07:24:03;10.37;;;8.93;;
7621;SDS011;3852;52.284;8.032;2022-08-19T07:26:30;8.90;;;7.97;;
7621;SDS011;3852;52.284;8.032;2022-08-19T07:28:58;8.80;;;7.60;;
7621;SDS011;3852;52.284;8.032;2022-08-19T07:31:26;9.23;;;7.83;;
7621;SDS011;3852;52.284;8.032;2022-08-19T07:33:53;8.20;;;7.50;;
7621;SDS011;3852;52.284;8.032;2022-08-19T07:36:23;9.97;;;7.50;;
7621;SDS011;3852;52.284;8.032;2022-08-19T07:38:55;8.50;;;7.07;;
7621;SDS011;3852;52.284;8.032;2022-08-19T07:41:23;7.50;;;6.80;;
7621;SDS011;3852;52.284;8.032;2022-08-19T07:43:53;9.43;;;7.50;;
7621;SDS011;3852;52.284;8.032;2022-08-19T07:46:20;7.50;;;6.80;;
7621;SDS011;3852;52.284;8.032;2022-08-19T07:48:46;6.50;;;5.77;;
7621;SDS011;3852;52.284;8.032;2022-08-19T07:51:19;8.87;;;7.97;;
7621;SDS011;3852;52.284;8.032;2022-08-19T07:53:47;7.57;;;6.83;;
7621;SDS011;3852;52.284;8.032;2022-08-19T07:56:16;6.93;;;6.23;;
7621;SDS011;3852;52.284;8.032;2022-08-19T07:58:46;7.07;;;6.43;;
7621;SDS011;3852;52.284;8.032;2022-08-19T08:01:15;7.00;;;6.30;;
7621;SDS011;3852;52.284;8.032;2022-08-19T08:03:50;7.70;;;6.10;;
7621;SDS011;3852;52.284;8.032;2022-08-19T08:06:36;7.13;;;6.43;;
7621;SDS011;3852;52.284;8.032;2022-08-19T08:09:26;9.47;;;6.40;;
7621;SDS011;3852;52.284;8.032;2022-08-19T08:14:35;5.90;;;5.40;;
7621;SDS011;3852;52.284;8.032;2022-08-19T08:17:05;6.47;;;5.87;;
7621;SDS011;3852;52.284;8.032;2022-08-19T08:19:33;7.13;;;4.63;;
7621;SDS011;3852;52.284;8.032;2022-08-19T08:21:59;5.50;;;5.10;;
7621;SDS011;3852;52.284;8.032;2022-08-19T08:24:28;6.60;;;4.40;;
7621;SDS011;3852;52.284;8.032;2022-08-19T08:26:56;4.47;;;4.07;;
7621;SDS011;3852;52.284;8.032;2022-08-19T08:29:24;4.97;;;4.47;;
7621;SDS011;3852;52.284;8.032;2022-08-19T08:31:54;4.13;;;3.80;;
7621;SDS011;3852;52.284;8.032;2022-08-19T08:34:21;5.07;;;4.57;;
7621;SDS011;3852;52.284;8.032;2022-08-19T08:36:47;4.30;;;3.93;;
7621;SDS011;3852;52.284;8.032;2022-08-19T08:39:14;4.70;;;4.30;;
7621;SDS011;3852;52.284;8.032;2022-08-19T08:47:36;7.17;;;5.00;;
7621;SDS011;3852;52.284;8.032;2022-08-19T08:50:10;5.73;;;4.27;;
7621;SDS011;3852;52.284;8.032;2022-08-19T08:53:08;5.43;;;4.27;;
7621;SDS011;3852;52.284;8.032;2022-08-19T08:55:36;4.83;;;4.07;;
7621;SDS011;3852;52.284;8.032;2022-08-19T08:58:06;6.50;;;3.73;;
7621;SDS011;3852;52.284;8.032;2022-08-19T09:00:43;3.50;;;3.20;;
7621;SDS011;3852;52.284;8.032;2022-08-19T09:03:25;4.83;;;3.77;;
7621;SDS011;3852;52.284;8.032;2022-08-19T09:05:59;3.97;;;3.67;;
7621;SDS011;3852;52.284;8.032;2022-08-19T09:11:00;4.30;;;4.00;;
7621;SDS011;3852;52.284;8.032;2022-08-19T09:13:43;4.00;;;3.70;;
7621;SDS011;3852;52.284;8.032;2022-08-19T09:16:19;4.30;;;3.90;;
7621;SDS011;3852;52.284;8.032;2022-08-19T09:18:53;4.13;;;3.73;;
7621;SDS011;3852;52.284;8.032;2022-08-19T09:21:24;3.90;;;3.60;;
7621;SDS011;3852;52.284;8.032;2022-08-19T09:23:51;4.30;;;3.30;;
7621;SDS011;3852;52.284;8.032;2022-08-19T09:26:18;4.47;;;2.97;;
7621;SDS011;3852;52.284;8.032;2022-08-19T09:28:46;4.17;;;3.57;;
7621;SDS011;3852;52.284;8.032;2022-08-19T09:31:15;3.63;;;3.40;;
7621;SDS011;3852;52.284;8.032;2022-08-19T09:33:45;4.70;;;4.30;;
7621;SDS011;3852;52.284;8.032;2022-08-19T09:36:13;4.10;;;3.80;;
7621;SDS011;3852;52.284;8.032;2022-08-19T09:38:41;4.20;;;3.80;;
7621;SDS011;3852;52.284;8.032;2022-08-19T09:41:08;4.30;;;4.00;;
7621;SDS011;3852;52.284;8.032;2022-08-19T09:43:40;4.40;;;4.00;;
7621;SDS011;3852;52.284;8.032;2022-08-19T09:46:09;3.90;;;3.60;;
7621;SDS011;3852;52.284;8.032;2022-08-19T09:48:35;4.13;;;3.67;;
7621;SDS011;3852;52.284;8.032;2022-08-19T09:51:10;3.87;;;3.23;;
7621;SDS011;3852;52.284;8.032;2022-08-19T09:53:42;3.67;;;3.40;;
7621;SDS011;3852;52.284;8.032;2022-08-19T09:56:09;3.93;;;3.63;;
7621;SDS011;3852;52.284;8.032;2022-08-19T09:58:36;5.40;;;3.40;;
7621;SDS011;3852;52.284;8.032;2022-08-19T10:01:03;5.30;;;4.80;;
7621;SDS011;3852;52.284;8.032;2022-08-19T10:03:31;5.07;;;4.23;;
7621;SDS011;3852;52.284;8.032;2022-08-19T10:05:59;5.77;;;5.00;;
7621;SDS011;3852;52.284;8.032;2022-08-19T10:08:29;6.50;;;5.90;;
7621;SDS011;3852;52.284;8.032;2022-08-19T10:11:00;4.70;;;4.17;;
7621;SDS011;3852;52.284;8.032;2022-08-19T10:13:29;5.00;;;4.30;;
7621;SDS011;3852;52.284;8.032;2022-08-19T10:16:03;5.70;;;4.23;;
7621;SDS011;3852;52.284;8.032;2022-08-19T10:18:47;4.07;;;3.60;;
7621;SDS011;3852;52.284;8.032;2022-08-19T10:21:16;4.30;;;3.90;;
7621;SDS011;3852;52.284;8.032;2022-08-19T10:23:49;3.67;;;3.30;;
7621;SDS011;3852;52.284;8.032;2022-08-19T10:26:19;3.40;;;2.93;;
7621;SDS011;3852;52.284;8.032;2022-08-19T10:28:51;3.60;;;3.40;;
7621;SDS011;3852;52.284;8.032;2022-08-19T10:31:21;3.63;;;3.37;;
7621;SDS011;3852;52.284;8.032;2022-08-19T10:33:51;4.97;;;4.23;;
7621;SDS011;3852;52.284;8.032;2022-08-19T10:36:22;3.60;;;3.30;;
7621;SDS011;3852;52.284;8.032;2022-08-19T10:38:59;4.50;;;4.10;;
7621;SDS011;3852;52.284;8.032;2022-08-19T10:41:31;3.30;;;3.10;;
7621;SDS011;3852;52.284;8.032;2022-08-19T10:44:02;3.47;;;2.90;;
7621;SDS011;3852;52.284;8.032;2022-08-19T10:46:32;3.40;;;3.17;;
7621;SDS011;3852;52.284;8.032;2022-08-19T10:49:04;3.63;;;3.33;;
7621;SDS011;3852;52.284;8.032;2022-08-19T10:51:30;3.50;;;3.30;;
7621;SDS011;3852;52.284;8.032;2022-08-19T10:54:16;3.23;;;3.03;;
7621;SDS011;3852;52.284;8.032;2022-08-19T10:56:42;3.57;;;3.27;;
7621;SDS011;3852;52.284;8.032;2022-08-19T10:59:27;4.03;;;3.80;;
7621;SDS011;3852;52.284;8.032;2022-08-19T11:01:58;3.43;;;3.23;;
7621;SDS011;3852;52.284;8.032;2022-08-19T11:04:25;3.40;;;3.20;;
7621;SDS011;3852;52.284;8.032;2022-08-19T11:06:52;3.70;;;3.40;;
7621;SDS011;3852;52.284;8.032;2022-08-19T11:09:22;4.17;;;3.77;;
7621;SDS011;3852;52.284;8.032;2022-08-19T11:11:50;4.87;;;3.80;;
7621;SDS011;3852;52.284;8.032;2022-08-19T11:14:18;3.80;;;3.50;;
7621;SDS011;3852;52.284;8.032;2022-08-19T11:16:46;3.13;;;2.90;;
7621;SDS011;3852;52.284;8.032;2022-08-19T11:19:14;3.30;;;3.00;;
7621;SDS011;3852;52.284;8.032;2022-08-19T11:21:44;2.97;;;2.77;;
7621;SDS011;3852;52.284;8.032;2022-08-19T11:24:16;3.07;;;2.87;;
7621;SDS011;3852;52.284;8.032;2022-08-19T11:26:48;2.67;;;2.53;;
7621;SDS011;3852;52.284;8.032;2022-08-19T11:29:17;2.67;;;2.47;;
7621;SDS011;3852;52.284;8.032;2022-08-19T11:31:49;2.97;;;2.77;;
7621;SDS011;3852;52.284;8.032;2022-08-19T11:34:17;3.47;;;3.17;;
7621;SDS011;3852;52.284;8.032;2022-08-19T11:36:46;3.10;;;2.90;;
7621;SDS011;3852;52.284;8.032;2022-08-19T11:39:14;2.90;;;2.70;;
7621;SDS011;3852;52.284;8.032;2022-08-19T11:41:44;3.10;;;2.90;;
7621;SDS011;3852;52.284;8.032;2022-08-19T11:44:10;3.30;;;3.00;;
7621;SDS011;3852;52.284;8.032;2022-08-19T11:46:39;4.00;;;2.77;;
7621;SDS011;3852;52.284;8.032;2022-08-19T11:49:11;5.50;;;3.00;;
7621;SDS011;3852;52.284;8.032;2022-08-19T11:51:39;2.73;;;2.63;;
7621;SDS011;3852;52.284;8.032;2022-08-19T11:54:07;2.83;;;2.67;;
7621;SDS011;3852;52.284;8.032;2022-08-19T11:56:34;3.57;;;2.80;;
7621;SDS011;3852;52.284;8.032;2022-08-19T11:59:03;3.43;;;3.00;;
7621;SDS011;3852;52.284;8.032;2022-08-19T12:01:29;3.47;;;2.87;;
7621;SDS011;3852;52.284;8.032;2022-08-19T12:03:56;3.00;;;2.80;;
7621;SDS011;3852;52.284;8.032;2022-08-19T12:06:24;3.00;;;2.80;;
7621;SDS011;3852;52.284;8.032;2022-08-19T12:08:57;3.40;;;3.20;;
7621;SDS011;3852;52.284;8.032;2022-08-19T12:11:27;2.93;;;2.83;;
7621;SDS011;3852;52.284;8.032;2022-08-19T12:13:53;3.33;;;3.03;;
7621;SDS011;3852;52.284;8.032;2022-08-19T12:16:21;3.20;;;3.00;;
7621;SDS011;3852;52.284;8.032;2022-08-19T12:18:52;3.30;;;2.97;;
7621;SDS011;3852;52.284;8.032;2022-08-19T12:21:20;2.90;;;2.70;;
7621;SDS011;3852;52.284;8.032;2022-08-19T12:23:52;3.03;;;2.93;;
7621;SDS011;3852;52.284;8.032;2022-08-19T12:26:20;3.67;;;3.07;;
7621;SDS011;3852;52.284;8.032;2022-08-19T12:28:46;3.30;;;3.10;;
7621;SDS011;3852;52.284;8.032;2022-08-19T12:31:13;3.13;;;2.93;;
7621;SDS011;3852;52.284;8.032;2022-08-19T12:33:39;2.77;;;2.67;;
7621;SDS011;3852;52.284;8.032;2022-08-19T12:36:09;3.07;;;2.87;;
7621;SDS011;3852;52.284;8.032;2022-08-19T12:38:37;3.20;;;3.00;;
7621;SDS011;3852;52.284;8.032;2022-08-19T12:41:04;4.17;;;2.83;;
7621;SDS011;3852;52.284;8.032;2022-08-19T12:43:37;3.07;;;2.87;;
7621;SDS011;3852;52.284;8.032;2022-08-19T12:46:03;3.37;;;3.00;;
7621;SDS011;3852;52.284;8.032;2022-08-19T12:48:31;2.97;;;2.77;;
7621;SDS011;3852;52.284;8.032;2022-08-19T12:51:00;4.00;;;3.60;;
7621;SDS011;3852;52.284;8.032;2022-08-19T12:53:37;11.73;;;10.23;;
7621;SDS011;3852;52.284;8.032;2022-08-19T12:56:03;2.80;;;2.70;;
7621;SDS011;3852;52.284;8.032;2022-08-19T12:58:30;3.57;;;3.27;;
7621;SDS011;3852;52.284;8.032;2022-08-19T13:00:57;3.37;;;3.07;;
7621;SDS011;3852;52.284;8.032;2022-08-19T13:03:23;3.37;;;3.17;;
7621;SDS011;3852;52.284;8.032;2022-08-19T13:05:53;3.33;;;3.13;;
7621;SDS011;3852;52.284;8.032;2022-08-19T13:08:19;3.50;;;3.27;;
7621;SDS011;3852;52.284;8.032;2022-08-19T13:10:45;3.80;;;3.50;;
7621;SDS011;3852;52.284;8.032;2022-08-19T13:13:11;3.40;;;3.20;;
7621;SDS011;3852;52.284;8.032;2022-08-19T13:15:38;3.57;;;3.30;;
7621;SDS011;3852;52.284;8.032;2022-08-19T13:18:06;3.90;;;3.60;;
7621;SDS011;3852;52.284;8.032;2022-08-19T13:20:35;4.00;;;3.60;;
7621;SDS011;3852;52.284;8.032;2022-08-19T13:23:03;3.83;;;3.53;;
7621;SDS011;3852;52.284;8.032;2022-08-19T13:25:29;3.40;;;3.20;;
7621;SDS011;3852;52.284;8.032;2022-08-19T13:27:55;3.47;;;3.10;;
7621;SDS011;3852;52.284;8.032;2022-08-19T13:30:21;3.33;;;3.10;;
7621;SDS011;3852;52.284;8.032;2022-08-19T13:33:07;7.20;;;6.60;;
7621;SDS011;3852;52.284;8.032;2022-08-19T13:38:06;3.10;;;2.90;;
7621;SDS011;3852;52.284;8.032;2022-08-19T13:40:32;2.90;;;2.80;;
7621;SDS011;3852;52.284;8.032;2022-08-19T13:42:59;3.27;;;3.13;;
7621;SDS011;3852;52.284;8.032;2022-08-19T13:45:26;3.20;;;3.00;;
7621;SDS011;3852;52.284;8.032;2022-08-19T13:47:55;3.37;;;3.17;;
7621;SDS011;3852;52.284;8.032;2022-08-19T13:50:23;3.27;;;3.07;;
7621;SDS011;3852;52.284;8.032;2022-08-19T13:52:56;3.17;;;2.93;;
7621;SDS011;3852;52.284;8.032;2022-08-19T13:55:22;3.43;;;3.23;;
7621;SDS011;3852;52.284;8.032;2022-08-19T13:57:50;3.30;;;3.10;;
7621;SDS011;3852;52.284;8.032;2022-08-19T14:00:21;3.10;;;3.00;;
7621;SDS011;3852;52.284;8.032;2022-08-19T14:02:51;3.40;;;3.10;;
7621;SDS011;3852;52.284;8.032;2022-08-19T14:05:19;3.10;;;2.90;;
7621;SDS011;3852;52.284;8.032;2022-08-19T14:07:46;3.50;;;3.30;;
7621;SDS011;3852;52.284;8.032;2022-08-19T14:10:13;3.57;;;3.30;;
7621;SDS011;3852;52.284;8.032;2022-08-19T14:12:40;3.47;;;3.27;;
7621;SDS011;3852;52.284;8.032;2022-08-19T14:15:07;3.47;;;3.30;;
7621;SDS011;3852;52.284;8.032;2022-08-19T14:17:36;3.30;;;3.10;;
7621;SDS011;3852;52.284;8.032;2022-08-19T14:20:04;3.87;;;3.50;;
7621;SDS011;3852;52.284;8.032;2022-08-19T14:22:34;3.17;;;2.97;;
7621;SDS011;3852;52.284;8.032;2022-08-19T14:25:02;3.37;;;3.07;;
7621;SDS011;3852;52.284;8.032;2022-08-19T14:27:34;3.63;;;3.27;;
7621;SDS011;3852;52.284;8.032;2022-08-19T14:30:05;10.57;;;9.57;;
7621;SDS011;3852;52.284;8.032;2022-08-19T14:32:34;4.23;;;3.83;;
7621;SDS011;3852;52.284;8.032;2022-08-19T14:35:04;3.90;;;3.60;;
7621;SDS011;3852;52.284;8.032;2022-08-19T14:37:32;3.57;;;3.37;;
7621;SDS011;3852;52.284;8.032;2022-08-19T14:39:59;9.07;;;3.60;;
7621;SDS011;3852;52.284;8.032;2022-08-19T14:42:25;3.37;;;3.17;;
7621;SDS011;3852;52.284;8.032;2022-08-19T14:44:50;3.77;;;3.57;;
7621;SDS011;3852;52.284;8.032;2022-08-19T14:47:16;3.70;;;3.40;;
7621;SDS011;3852;52.284;8.032;2022-08-19T14:49:42;3.83;;;3.53;;
7621;SDS011;3852;52.284;8.032;2022-08-19T14:52:08;4.10;;;3.80;;
7621;SDS011;3852;52.284;8.032;2022-08-19T14:54:34;5.87;;;3.83;;
7621;SDS011;3852;52.284;8.032;2022-08-19T14:57:00;4.50;;;4.20;;
7621;SDS011;3852;52.284;8.032;2022-08-19T14:59:26;3.70;;;3.50;;
7621;SDS011;3852;52.284;8.032;2022-08-19T15:01:52;3.67;;;3.37;;
7621;SDS011;3852;52.284;8.032;2022-08-19T15:04:17;4.03;;;3.73;;
7621;SDS011;3852;52.284;8.032;2022-08-19T15:06:43;3.47;;;3.27;;
7621;SDS011;3852;52.284;8.032;2022-08-19T15:09:09;3.80;;;3.60;;
7621;SDS011;3852;52.284;8.032;2022-08-19T15:11:35;4.37;;;3.50;;
7621;SDS011;3852;52.284;8.032;2022-08-19T15:14:02;4.03;;;3.73;;
7621;SDS011;3852;52.284;8.032;2022-08-19T15:16:30;4.03;;;3.73;;
7621;SDS011;3852;52.284;8.032;2022-08-19T15:18:57;3.97;;;3.77;;
7621;SDS011;3852;52.284;8.032;2022-08-19T15:21:24;4.33;;;4.03;;
7621;SDS011;3852;52.284;8.032;2022-08-19T15:23:51;4.30;;;3.90;;
7621;SDS011;3852;52.284;8.032;2022-08-19T15:26:18;7.53;;;6.90;;
7621;SDS011;3852;52.284;8.032;2022-08-19T15:28:45;6.10;;;5.67;;
7621;SDS011;3852;52.284;8.032;2022-08-19T15:31:12;5.10;;;4.70;;
7621;SDS011;3852;52.284;8.032;2022-08-19T15:33:42;4.50;;;4.20;;
7621;SDS011;3852;52.284;8.032;2022-08-19T15:36:09;4.40;;;4.20;;
7621;SDS011;3852;52.284;8.032;2022-08-19T15:38:37;4.80;;;4.50;;